createdAt,value
2022-12-16T00:01:28.073Z,9.10
2022-12-16T00:03:55.894Z,9.43
2022-12-16T00:06:23.470Z,6.57
2022-12-16T00:08:50.083Z,6.10
2022-12-16T00:11:18.530Z,6.00
2022-12-16T00:13:45.114Z,6.20
2022-12-16T00:16:13.253Z,6.37
2022-12-16T00:18:40.056Z,8.57
2022-12-16T00:21:06.793Z,6.60
2022-12-16T00:23:34.097Z,8.63
2022-12-16T00:26:01.067Z,5.83
2022-12-16T00:28:27.667Z,6.13
2022-12-16T00:30:55.328Z,8.73
2022-12-16T00:33:22.638Z,9.97
2022-12-16T00:35:49.216Z,7.00
2022-12-16T00:38:15.914Z,9.57
2022-12-16T00:40:42.483Z,6.23
2022-12-16T00:43:09.132Z,9.57
2022-12-16T00:45:35.840Z,5.70
2022-12-16T00:48:02.444Z,5.80
2022-12-16T00:50:29.057Z,5.70
2022-12-16T00:52:55.643Z,12.63
2022-12-16T00:55:22.235Z,8.20
2022-12-16T00:57:49.004Z,7.27
2022-12-16T01:00:16.461Z,7.20
2022-12-16T01:02:43.793Z,6.83
2022-12-16T01:05:11.105Z,9.00
2022-12-16T01:07:37.780Z,6.87
2022-12-16T01:10:04.839Z,5.80
2022-12-16T01:12:31.421Z,6.97
2022-12-16T01:14:58.042Z,7.07
2022-12-16T01:17:25.985Z,6.40
2022-12-16T01:19:53.099Z,5.13
2022-12-16T01:22:20.407Z,5.97
2022-12-16T01:24:47.025Z,6.70
2022-12-16T01:27:13.685Z,6.50
2022-12-16T01:29:40.349Z,5.63
2022-12-16T01:32:06.980Z,4.90
2022-12-16T01:34:33.968Z,5.70
2022-12-16T01:37:00.543Z,8.63
2022-12-16T01:39:30.059Z,7.50
2022-12-16T01:41:56.950Z,6.13
2022-12-16T01:44:25.095Z,6.80
2022-12-16T01:46:56.352Z,6.47
2022-12-16T01:49:24.664Z,6.63
2022-12-16T01:51:55.251Z,4.87
2022-12-16T01:54:27.545Z,5.73
2022-12-16T01:56:55.821Z,5.13
2022-12-16T01:59:22.403Z,5.90
2022-12-16T02:01:49.134Z,5.53
2022-12-16T02:04:15.847Z,5.13
2022-12-16T02:06:42.431Z,4.60
2022-12-16T02:09:10.748Z,5.00
2022-12-16T02:11:56.954Z,5.57
2022-12-16T02:14:47.840Z,6.93
2022-12-16T02:17:32.043Z,6.17
2022-12-16T02:20:20.014Z,7.70
2022-12-16T02:23:24.303Z,6.13
2022-12-16T02:26:16.868Z,4.37
2022-12-16T02:29:07.983Z,6.80
2022-12-16T02:32:00.644Z,4.27
2022-12-16T02:34:46.039Z,5.57
2022-12-16T02:37:33.297Z,5.30
2022-12-16T02:40:01.161Z,6.20
2022-12-16T02:42:31.542Z,5.80
2022-12-16T02:45:10.413Z,4.17
2022-12-16T02:47:37.067Z,5.43
2022-12-16T02:50:03.824Z,5.23
2022-12-16T02:52:32.461Z,5.53
2022-12-16T02:55:01.599Z,5.57
2022-12-16T02:57:41.704Z,7.67
2022-12-16T03:00:17.122Z,4.77
2022-12-16T03:02:55.777Z,4.37
2022-12-16T03:05:34.635Z,6.13
2022-12-16T03:08:04.283Z,8.50
2022-12-16T03:10:32.626Z,9.03
2022-12-16T03:12:59.706Z,5.83
2022-12-16T03:15:26.936Z,6.73
2022-12-16T03:17:53.523Z,7.17
2022-12-16T03:20:25.243Z,5.57
2022-12-16T03:22:51.843Z,5.13
2022-12-16T03:25:19.306Z,7.17
2022-12-16T03:28:02.167Z,6.50
2022-12-16T03:30:32.714Z,4.40
2022-12-16T03:33:03.666Z,4.93
2022-12-16T03:35:38.171Z,7.03
2022-12-16T03:38:05.487Z,5.00
2022-12-16T03:40:32.069Z,4.30
2022-12-16T03:42:58.710Z,5.63
2022-12-16T03:45:30.754Z,6.53
2022-12-16T03:47:57.982Z,5.77
2022-12-16T03:50:31.285Z,4.63
2022-12-16T03:52:57.886Z,4.40
2022-12-16T03:55:24.471Z,6.87
2022-12-16T03:57:51.055Z,5.43
2022-12-16T04:00:17.840Z,5.67
2022-12-16T04:02:44.586Z,6.03
2022-12-16T04:05:11.502Z,6.77
2022-12-16T04:07:38.074Z,8.13
2022-12-16T04:10:05.308Z,6.67
2022-12-16T04:12:50.394Z,5.93
2022-12-16T04:15:35.737Z,7.33
2022-12-16T04:18:20.893Z,6.97
2022-12-16T04:21:09.279Z,10.10
2022-12-16T04:23:54.366Z,5.33
2022-12-16T04:26:21.137Z,6.83
2022-12-16T04:28:47.714Z,5.17
2022-12-16T04:31:14.363Z,8.27
2022-12-16T04:33:59.676Z,5.57
2022-12-16T04:36:44.838Z,7.47
2022-12-16T04:39:30.216Z,4.23
2022-12-16T04:42:15.647Z,9.17
2022-12-16T04:45:00.879Z,5.47
2022-12-16T04:47:46.245Z,5.60
2022-12-16T04:50:31.478Z,5.77
2022-12-16T04:53:16.781Z,6.63
2022-12-16T04:56:04.586Z,3.93
2022-12-16T04:58:50.067Z,11.30
2022-12-16T05:01:35.681Z,5.83
2022-12-16T05:04:21.287Z,5.03
2022-12-16T05:07:06.583Z,4.37
2022-12-16T05:09:51.863Z,6.53
2022-12-16T05:12:37.139Z,5.83
2022-12-16T05:15:22.614Z,6.20
2022-12-16T05:18:07.962Z,4.83
2022-12-16T05:20:53.279Z,7.83
2022-12-16T05:23:40.795Z,4.73
2022-12-16T05:26:26.070Z,3.80
2022-12-16T05:29:11.377Z,4.70
2022-12-16T05:31:56.890Z,5.77
2022-12-16T05:34:42.316Z,6.07
2022-12-16T05:37:27.771Z,6.57
2022-12-16T05:40:13.087Z,6.83
2022-12-16T05:42:58.492Z,6.67
2022-12-16T05:45:43.954Z,4.83
2022-12-16T05:48:29.427Z,4.77
2022-12-16T05:51:14.748Z,3.27
2022-12-16T05:54:00.000Z,5.47
2022-12-16T05:56:45.322Z,5.27
2022-12-16T05:59:30.658Z,4.60
2022-12-16T06:02:16.064Z,4.83
2022-12-16T06:05:01.346Z,5.13
2022-12-16T06:07:46.611Z,3.37
2022-12-16T06:10:32.006Z,5.03
2022-12-16T06:13:17.368Z,7.83
2022-12-16T06:16:08.330Z,5.40
2022-12-16T06:18:54.293Z,4.67
2022-12-16T06:21:39.588Z,4.27
2022-12-16T06:24:24.818Z,5.40
2022-12-16T06:27:10.181Z,6.07
2022-12-16T06:29:55.575Z,3.97
2022-12-16T06:32:41.039Z,8.20
2022-12-16T06:35:26.385Z,3.80
2022-12-16T06:38:11.806Z,3.67
2022-12-16T06:40:57.163Z,3.97
2022-12-16T06:43:42.638Z,6.03
2022-12-16T06:46:28.105Z,4.07
2022-12-16T06:49:13.322Z,5.47
2022-12-16T06:51:58.511Z,5.77
2022-12-16T06:54:43.793Z,5.03
2022-12-16T06:57:29.223Z,6.43
2022-12-16T07:00:14.606Z,3.60
2022-12-16T07:03:00.117Z,10.47
2022-12-16T07:05:45.391Z,3.90
2022-12-16T07:08:30.578Z,6.20
2022-12-16T07:11:17.417Z,8.80
2022-12-16T07:14:03.100Z,6.87
2022-12-16T07:16:48.435Z,8.43
2022-12-16T07:19:34.388Z,9.60
2022-12-16T07:22:19.721Z,10.33
2022-12-16T07:25:05.064Z,8.57
2022-12-16T07:27:51.898Z,7.87
2022-12-16T07:30:37.111Z,16.73
2022-12-16T07:33:22.494Z,17.30
2022-12-16T07:36:07.742Z,15.20
2022-12-16T07:38:53.110Z,15.10
2022-12-16T07:41:38.635Z,14.03
2022-12-16T07:44:23.887Z,11.87
2022-12-16T07:47:09.341Z,11.80
2022-12-16T07:49:55.580Z,11.73
2022-12-16T07:52:41.410Z,9.53
2022-12-16T07:55:27.212Z,9.20
2022-12-16T07:58:12.569Z,9.53
2022-12-16T08:00:57.892Z,10.17
2022-12-16T08:03:43.261Z,11.80
2022-12-16T08:06:28.599Z,9.43
2022-12-16T08:09:13.959Z,14.57
2022-12-16T08:11:59.213Z,9.53
2022-12-16T08:14:44.581Z,11.70
2022-12-16T08:17:29.806Z,9.70
2022-12-16T08:20:15.097Z,9.43
2022-12-16T08:23:00.435Z,7.50
2022-12-16T08:25:45.665Z,7.67
2022-12-16T08:28:31.214Z,10.60
2022-12-16T08:31:16.422Z,8.90
2022-12-16T08:34:02.017Z,8.83
2022-12-16T08:36:47.299Z,10.23
2022-12-16T08:39:32.618Z,6.80
2022-12-16T08:42:17.934Z,6.90
2022-12-16T08:45:03.616Z,8.67
2022-12-16T08:47:49.093Z,7.47
2022-12-16T08:50:34.494Z,6.33
2022-12-16T08:53:19.945Z,8.67
2022-12-16T08:56:05.203Z,8.33
2022-12-16T08:58:50.598Z,7.33
2022-12-16T09:01:36.569Z,10.17
2022-12-16T09:04:21.710Z,8.67
2022-12-16T09:07:07.107Z,13.10
2022-12-16T09:09:52.438Z,8.37
2022-12-16T09:12:37.819Z,8.17
2022-12-16T09:15:23.175Z,10.53
2022-12-16T09:18:14.682Z,10.27
2022-12-16T09:21:00.185Z,11.07
2022-12-16T09:23:45.580Z,11.93
2022-12-16T09:26:35.476Z,10.50
2022-12-16T09:29:20.822Z,9.20
2022-12-16T09:32:06.324Z,8.67
2022-12-16T09:34:56.078Z,8.03
2022-12-16T09:37:41.467Z,9.50
2022-12-16T09:40:30.255Z,9.23
2022-12-16T09:44:11.097Z,8.87
2022-12-16T09:47:10.578Z,8.97
2022-12-16T09:50:07.465Z,10.37
2022-12-16T09:53:03.009Z,10.37
2022-12-16T09:55:56.406Z,7.07
2022-12-16T09:58:41.963Z,10.33
2022-12-16T10:01:30.363Z,9.93
2022-12-16T10:04:15.620Z,9.43
2022-12-16T10:07:07.941Z,6.80
2022-12-16T10:10:16.994Z,6.87
2022-12-16T10:13:07.265Z,7.13
2022-12-16T10:16:06.327Z,7.57
2022-12-16T10:19:09.838Z,7.80
2022-12-16T10:22:03.179Z,9.90
2022-12-16T10:24:57.127Z,8.60
2022-12-16T10:27:49.272Z,11.00
2022-12-16T10:30:34.632Z,7.90
2022-12-16T10:33:21.473Z,6.30
2022-12-16T10:36:11.347Z,8.97
2022-12-16T10:39:05.632Z,8.03
2022-12-16T10:41:53.031Z,7.27
2022-12-16T10:45:08.317Z,8.93
2022-12-16T10:47:54.089Z,8.10
2022-12-16T10:50:39.988Z,7.03
2022-12-16T10:53:43.642Z,8.03
2022-12-16T10:56:58.305Z,7.30
2022-12-16T10:59:43.525Z,8.43
2022-12-16T11:02:36.480Z,8.63
2022-12-16T11:05:43.344Z,7.27
2022-12-16T11:08:45.429Z,5.47
2022-12-16T11:11:49.168Z,6.97
2022-12-16T11:17:54.038Z,7.80
2022-12-16T11:20:42.707Z,9.70
2022-12-16T11:23:43.569Z,6.57
2022-12-16T11:26:37.324Z,8.27
2022-12-16T11:29:35.716Z,5.47
2022-12-16T11:32:39.559Z,7.03
2022-12-16T11:35:28.832Z,9.13
2022-12-16T11:38:14.194Z,8.60
2022-12-16T11:40:59.661Z,7.73
2022-12-16T11:43:44.787Z,7.43
2022-12-16T11:46:33.032Z,7.57
2022-12-16T11:49:24.802Z,7.90
2022-12-16T11:52:35.977Z,6.47
2022-12-16T11:56:05.917Z,6.53
2022-12-16T11:59:09.041Z,6.27
2022-12-16T12:02:07.886Z,5.27
2022-12-16T12:05:04.767Z,6.90
2022-12-16T12:08:06.978Z,6.07
2022-12-16T12:11:40.207Z,9.60
2022-12-16T12:14:31.013Z,10.80
2022-12-16T12:17:27.349Z,13.97
2022-12-16T12:20:24.666Z,14.53
2022-12-16T12:23:09.970Z,13.67
2022-12-16T12:26:28.193Z,13.93
2022-12-16T12:29:30.334Z,16.10
2022-12-16T12:32:37.222Z,17.57
2022-12-16T12:35:47.614Z,13.07
2022-12-16T12:38:43.096Z,12.10
2022-12-16T12:41:42.516Z,14.43
2022-12-16T12:45:01.478Z,13.03
2022-12-16T12:47:46.508Z,10.50
2022-12-16T12:50:48.864Z,11.07
2022-12-16T12:53:47.175Z,10.57
2022-12-16T12:56:52.714Z,8.93
2022-12-16T13:00:08.960Z,8.33
2022-12-16T13:03:14.757Z,11.07
2022-12-16T13:05:59.861Z,12.80
2022-12-16T13:08:51.148Z,10.40
2022-12-16T13:11:37.015Z,13.97
2022-12-16T13:14:43.159Z,11.33
2022-12-16T13:17:28.361Z,11.93
2022-12-16T13:20:14.406Z,9.70
2022-12-16T13:22:59.740Z,8.90
2022-12-16T13:26:12.321Z,8.93
2022-12-16T13:28:59.390Z,9.67
2022-12-16T13:31:45.531Z,8.93
2022-12-16T13:34:33.870Z,9.47
2022-12-16T13:37:26.950Z,11.20
2022-12-16T13:40:22.417Z,9.03
2022-12-16T13:43:09.101Z,12.23
2022-12-16T13:45:54.413Z,7.73
2022-12-16T13:48:57.207Z,10.23
2022-12-16T13:52:24.650Z,9.97
2022-12-16T13:55:23.010Z,14.20
2022-12-16T13:58:09.867Z,12.10
2022-12-16T14:00:55.354Z,11.00
2022-12-16T14:04:00.500Z,11.90
2022-12-16T14:06:45.964Z,8.63
2022-12-16T14:09:53.368Z,9.13
2022-12-16T14:12:57.159Z,12.47
2022-12-16T14:15:46.630Z,8.57
2022-12-16T14:18:44.564Z,10.37
2022-12-16T14:21:32.161Z,7.17
2022-12-16T14:24:21.711Z,9.43
2022-12-16T14:27:07.731Z,9.47
2022-12-16T14:29:52.792Z,9.40
2022-12-16T14:32:41.976Z,8.33
2022-12-16T14:35:35.266Z,7.63
2022-12-16T14:38:43.439Z,14.27
2022-12-16T14:41:35.335Z,10.93
2022-12-16T14:44:20.310Z,12.00
2022-12-16T14:47:09.421Z,9.63
2022-12-16T14:49:54.642Z,10.83
2022-12-16T14:52:44.082Z,11.87
2022-12-16T14:55:34.623Z,10.73
2022-12-16T14:58:36.441Z,11.00
2022-12-16T15:01:37.692Z,9.77
2022-12-16T15:04:34.569Z,15.30
2022-12-16T15:07:19.963Z,10.37
2022-12-16T15:10:06.731Z,9.73
2022-12-16T15:12:54.403Z,12.07
2022-12-16T15:16:02.062Z,15.17
2022-12-16T15:18:56.396Z,12.57
2022-12-16T15:21:42.143Z,13.90
2022-12-16T15:24:35.158Z,11.97
2022-12-16T15:27:39.422Z,10.70
2022-12-16T15:30:57.083Z,10.70
2022-12-16T15:33:44.916Z,9.57
2022-12-16T15:36:50.557Z,11.40
2022-12-16T15:39:42.758Z,14.03
2022-12-16T15:42:43.238Z,10.10
2022-12-16T15:45:44.677Z,18.37
2022-12-16T15:48:38.910Z,12.30
2022-12-16T15:51:40.592Z,11.70
2022-12-16T15:54:32.649Z,11.90
2022-12-16T15:57:17.886Z,10.63
2022-12-16T16:00:17.007Z,12.47
2022-12-16T16:03:06.813Z,24.47
2022-12-16T16:05:52.277Z,10.50
2022-12-16T16:08:37.657Z,9.83
2022-12-16T16:11:23.014Z,11.70
2022-12-16T16:14:14.144Z,12.33
2022-12-16T16:16:59.895Z,12.47
2022-12-16T16:19:45.201Z,12.90
2022-12-16T16:22:35.403Z,15.27
2022-12-16T16:25:31.479Z,12.13
2022-12-16T16:28:16.839Z,14.30
2022-12-16T16:31:02.301Z,14.27
2022-12-16T16:33:47.445Z,14.23
2022-12-16T16:36:33.502Z,10.77
2022-12-16T16:39:18.854Z,17.40
2022-12-16T16:42:04.429Z,10.83
2022-12-16T16:44:49.689Z,11.73
2022-12-16T16:47:35.143Z,17.07
2022-12-16T16:50:20.445Z,10.60
2022-12-16T16:53:05.778Z,13.47
2022-12-16T16:55:51.134Z,13.20
2022-12-16T16:58:44.206Z,13.17
2022-12-16T17:01:34.060Z,10.27
2022-12-16T17:04:19.477Z,8.37
2022-12-16T17:07:04.689Z,10.17
2022-12-16T17:09:49.925Z,16.70
2022-12-16T17:12:42.489Z,12.43
2022-12-16T17:15:48.929Z,10.60
2022-12-16T17:18:36.581Z,10.53
2022-12-16T17:21:22.918Z,11.27
2022-12-16T17:24:08.273Z,10.97
2022-12-16T17:26:53.691Z,9.17
2022-12-16T17:29:43.017Z,10.53
2022-12-16T17:32:28.548Z,9.77
2022-12-16T17:35:13.936Z,10.50
2022-12-16T17:37:59.413Z,12.80
2022-12-16T17:40:44.800Z,9.13
2022-12-16T17:43:30.121Z,9.57
2022-12-16T17:46:16.835Z,9.93
2022-12-16T17:49:02.031Z,10.13
2022-12-16T17:51:47.567Z,15.47
2022-12-16T17:54:32.916Z,11.93
2022-12-16T17:57:18.321Z,10.07
2022-12-16T18:00:03.646Z,14.93
2022-12-16T18:02:49.134Z,11.83
2022-12-16T18:05:41.139Z,12.23
2022-12-16T18:08:29.308Z,13.47
2022-12-16T18:11:15.268Z,21.23
2022-12-16T18:14:00.710Z,16.60
2022-12-16T18:16:46.277Z,15.90
2022-12-16T18:19:32.358Z,16.73
2022-12-16T18:22:17.762Z,12.57
2022-12-16T18:25:02.993Z,13.60
2022-12-16T18:27:48.456Z,14.50
2022-12-16T18:30:33.945Z,12.30
2022-12-16T18:33:19.266Z,11.90
2022-12-16T18:36:04.675Z,12.00
2022-12-16T18:38:50.159Z,11.53
2022-12-16T18:41:36.612Z,11.83
2022-12-16T18:44:22.527Z,10.73
2022-12-16T18:47:07.841Z,11.37
2022-12-16T18:49:53.420Z,11.93
2022-12-16T18:52:38.682Z,13.87
2022-12-16T18:55:24.654Z,9.57
2022-12-16T18:58:34.838Z,10.83
2022-12-16T19:01:23.680Z,8.93
2022-12-16T19:04:08.989Z,13.17
2022-12-16T19:06:54.271Z,9.00
2022-12-16T19:09:39.694Z,12.30
2022-12-16T19:12:25.087Z,13.43
2022-12-16T19:15:10.617Z,11.57
2022-12-16T19:17:56.025Z,10.93
2022-12-16T19:20:41.388Z,6.73
2022-12-16T19:23:26.691Z,10.07
2022-12-16T19:26:15.582Z,7.97
2022-12-16T19:29:01.039Z,11.23
2022-12-16T19:31:47.093Z,8.07
2022-12-16T19:34:32.467Z,9.53
2022-12-16T19:37:17.767Z,8.83
2022-12-16T19:40:03.066Z,9.73
2022-12-16T19:42:48.524Z,8.47
2022-12-16T19:45:33.981Z,8.17
2022-12-16T19:48:20.481Z,7.37
2022-12-16T19:51:05.892Z,7.07
2022-12-16T19:53:51.176Z,13.47
2022-12-16T19:56:37.088Z,8.20
2022-12-16T19:59:22.408Z,9.93
2022-12-16T20:02:07.940Z,9.13
2022-12-16T20:04:53.158Z,9.27
2022-12-16T20:07:41.542Z,8.77
2022-12-16T20:10:46.662Z,9.07
2022-12-16T20:13:32.127Z,9.40
2022-12-16T20:16:24.527Z,7.83
2022-12-16T20:19:10.004Z,9.17
2022-12-16T20:21:56.371Z,9.10
2022-12-16T20:24:42.331Z,9.17
2022-12-16T20:27:27.804Z,7.83
2022-12-16T20:30:13.079Z,8.07
2022-12-16T20:32:58.571Z,10.90
2022-12-16T20:35:43.786Z,8.93
2022-12-16T20:38:29.275Z,9.10
2022-12-16T20:41:19.335Z,5.83
2022-12-16T20:44:08.349Z,11.57
2022-12-16T20:46:56.116Z,8.73
2022-12-16T20:49:41.744Z,6.57
2022-12-16T20:52:27.107Z,9.60
2022-12-16T20:55:12.600Z,9.97
2022-12-16T20:57:58.067Z,7.37
2022-12-16T21:00:43.384Z,10.77
2022-12-16T21:03:30.307Z,12.80
2022-12-16T21:06:15.603Z,9.03
2022-12-16T21:09:01.105Z,8.27
2022-12-16T21:11:46.827Z,11.57
2022-12-16T21:14:32.197Z,13.63
2022-12-16T21:17:17.673Z,6.10
2022-12-16T21:20:03.007Z,8.40
2022-12-16T21:22:48.450Z,6.77
2022-12-16T21:25:34.123Z,6.90
2022-12-16T21:28:19.452Z,8.90
2022-12-16T21:31:04.791Z,7.90
2022-12-16T21:33:50.182Z,8.10
2022-12-16T21:36:35.652Z,8.27
2022-12-16T21:39:21.027Z,7.73
2022-12-16T21:42:06.589Z,10.63
2022-12-16T21:44:52.057Z,23.80
2022-12-16T21:47:37.411Z,32.67
2022-12-16T21:50:23.155Z,28.20
2022-12-16T21:53:08.471Z,16.80
2022-12-16T21:56:05.687Z,14.40
2022-12-16T21:58:51.115Z,21.30
2022-12-16T22:01:37.134Z,17.80
2022-12-16T22:04:22.758Z,13.30
2022-12-16T22:07:08.096Z,15.93
2022-12-16T22:09:54.297Z,14.63
2022-12-16T22:12:41.784Z,14.03
2022-12-16T22:15:41.116Z,16.93
2022-12-16T22:18:26.474Z,12.23
2022-12-16T22:21:15.875Z,13.23
2022-12-16T22:24:01.352Z,12.77
2022-12-16T22:26:46.705Z,15.90
2022-12-16T22:29:32.008Z,12.43
2022-12-16T22:32:17.508Z,11.00
2022-12-16T22:35:02.837Z,12.20
2022-12-16T22:37:48.267Z,15.73
2022-12-16T22:40:33.795Z,9.97
2022-12-16T22:43:18.995Z,10.60
2022-12-16T22:46:04.211Z,10.27
2022-12-16T22:48:49.454Z,9.47
2022-12-16T22:51:35.055Z,10.80
2022-12-16T22:54:20.454Z,15.93
2022-12-16T22:57:05.686Z,9.33
2022-12-16T22:59:51.121Z,9.90
2022-12-16T23:02:36.818Z,9.20
2022-12-16T23:05:27.376Z,9.90
2022-12-16T23:08:13.571Z,10.57
2022-12-16T23:10:59.003Z,11.13
2022-12-16T23:13:44.962Z,9.57
2022-12-16T23:16:30.342Z,10.10
2022-12-16T23:19:15.594Z,13.33
2022-12-16T23:22:01.002Z,15.87
2022-12-16T23:24:46.363Z,12.93
2022-12-16T23:27:31.728Z,9.97
2022-12-16T23:30:17.179Z,10.63
2022-12-16T23:33:02.549Z,9.97
2022-12-16T23:35:47.901Z,10.93
2022-12-16T23:38:33.230Z,8.77
2022-12-16T23:41:18.612Z,11.83
2022-12-16T23:44:03.865Z,9.33
2022-12-16T23:46:49.554Z,9.73
2022-12-16T23:49:34.695Z,10.03
2022-12-16T23:52:20.048Z,8.40
2022-12-16T23:55:05.431Z,10.50
2022-12-16T23:57:50.622Z,7.63
